Time,TemperatureF,DewpointF,PressureIn,WindDirection,WindDirectionDegrees,WindSpeedMPH,WindSpeedGustMPH,Humidity,HourlyPrecipIn,Conditions,Clouds,dailyrainin,SoftwareType,DateUTC
2013-08-13 03:15:00,73.2,68.1,29.50,North,0,0.0,0.0,84,0.00,,,0.00,WUHU21623XXSP,2013-08-13 07:15:00,
2013-08-13 03:40:00,73.2,68.5,29.51,North,0,0.0,0.0,85,0.00,,,0.00,WUHU21623XXSP,2013-08-13 07:40:00,
2013-08-13 04:26:00,73.2,68.8,29.50,NE,45,0.0,0.0,86,0.00,,,0.00,WUHU21623XXSP,2013-08-13 08:26:00,
2013-08-13 04:38:00,73.0,69.0,29.49,NE,45,0.0,0.0,87,0.00,,,0.00,WUHU21623XXSP,2013-08-13 08:38:00,
2013-08-13 04:43:00,72.9,68.8,29.49,NE,45,0.0,0.0,87,0.00,,,0.00,WUHU21623XXSP,2013-08-13 08:43:00,
2013-08-13 04:49:00,73.0,68.6,29.48,NE,45,0.0,0.0,86,0.00,,,0.00,WUHU21623XXSP,2013-08-13 08:49:00,
2013-08-13 05:11:00,72.7,68.3,29.49,NE,45,0.0,0.0,86,0.00,,,0.00,WUHU21623XXSP,2013-08-13 09:11:00,
2013-08-13 05:17:00,72.7,67.9,29.48,NE,45,0.0,0.0,85,0.00,,,0.00,WUHU21623XXSP,2013-08-13 09:17:00,
2013-08-13 05:23:00,72.7,67.9,29.49,NE,45,0.0,0.0,85,0.00,,,0.00,WUHU21623XXSP,2013-08-13 09:23:00,
2013-08-13 05:29:00,72.5,67.4,29.49,NE,45,0.0,0.0,84,0.00,,,0.00,WUHU21623XXSP,2013-08-13 09:29:00,
2013-08-13 05:35:00,72.5,67.4,29.48,NE,45,0.0,0.0,84,0.00,,,0.00,WUHU21623XXSP,2013-08-13 09:35:00,
2013-08-13 05:41:00,72.3,67.2,29.48,NE,45,0.0,0.0,84,0.00,,,0.00,WUHU21623XXSP,2013-08-13 09:41:00,
2013-08-13 05:46:00,72.1,67.0,29.48,NE,45,0.0,0.0,84,0.00,,,0.00,WUHU21623XXSP,2013-08-13 09:46:00,
2013-08-13 05:51:00,72.1,67.4,29.48,NE,45,0.0,0.0,85,0.00,,,0.00,WUHU21623XXSP,2013-08-13 09:51:00,
2013-08-13 05:56:00,72.1,67.0,29.48,NE,45,0.0,0.0,84,0.00,,,0.00,WUHU21623XXSP,2013-08-13 09:56:00,
2013-08-13 06:01:00,72.1,67.0,29.48,NE,45,0.0,0.0,84,0.00,,,0.00,WUHU21623XXSP,2013-08-13 10:01:00,
2013-08-13 06:06:00,72.0,67.2,29.48,NE,45,0.0,0.0,85,0.00,,,0.00,WUHU21623XXSP,2013-08-13 10:06:00,
2013-08-13 06:11:00,71.8,67.0,29.48,NE,45,0.0,0.0,85,0.00,,,0.00,WUHU21623XXSP,2013-08-13 10:11:00,
2013-08-13 06:16:00,71.8,67.0,29.48,NE,45,0.0,0.0,85,0.00,,,0.00,WUHU21623XXSP,2013-08-13 10:16:00,
2013-08-13 06:21:00,71.8,67.0,29.47,NE,45,0.0,0.0,85,0.00,,,0.00,WUHU21623XXSP,2013-08-13 10:21:00,
2013-08-13 06:26:00,71.6,66.8,29.48,NE,45,0.0,0.0,85,0.00,,,0.00,WUHU21623XXSP,2013-08-13 10:26:00,
2013-08-13 06:32:00,71.4,66.7,29.48,NE,45,0.0,0.0,85,0.00,,,0.00,WUHU21623XXSP,2013-08-13 10:32:00,
2013-08-13 06:37:00,71.4,66.7,29.48,NE,45,0.0,0.0,85,0.00,,,0.00,WUHU21623XXSP,2013-08-13 10:37:00,
2013-08-13 06:42:00,71.4,66.7,29.48,NE,45,0.0,0.0,85,0.00,,,0.00,WUHU21623XXSP,2013-08-13 10:42:00,
2013-08-13 06:47:00,71.4,66.3,29.49,NE,45,0.0,0.0,84,0.00,,,0.00,WUHU21623XXSP,2013-08-13 10:47:00,
2013-08-13 06:52:00,71.4,66.3,29.49,NE,45,0.0,0.0,84,0.00,,,0.00,WUHU21623XXSP,2013-08-13 10:52:00,
2013-08-13 06:57:00,71.2,66.1,29.49,NE,45,0.0,0.0,84,0.00,,,0.00,WUHU21623XXSP,2013-08-13 10:57:00,
2013-08-13 07:02:00,71.2,66.1,29.49,NE,45,0.0,0.0,84,0.00,,,0.00,WUHU21623XXSP,2013-08-13 11:02:00,
2013-08-13 07:08:00,71.4,66.3,29.50,NE,45,0.0,0.0,84,0.00,,,0.00,WUHU21623XXSP,2013-08-13 11:08:00,
2013-08-13 07:13:00,71.2,65.8,29.49,NE,45,0.0,0.0,83,0.00,,,0.00,WUHU21623XXSP,2013-08-13 11:13:00,
2013-08-13 07:18:00,71.4,66.0,29.49,NE,45,0.0,0.0,83,0.00,,,0.00,WUHU21623XXSP,2013-08-13 11:18:00,
2013-08-13 07:23:00,71.8,66.3,29.49,NE,45,0.0,0.0,83,0.00,,,0.00,WUHU21623XXSP,2013-08-13 11:23:00,
2013-08-13 07:28:00,72.3,66.5,29.50,NE,45,0.0,0.0,82,0.00,,,0.00,WUHU21623XXSP,2013-08-13 11:28:00,
2013-08-13 07:33:00,72.5,66.7,29.50,NE,45,0.0,0.0,82,0.00,,,0.00,WUHU21623XXSP,2013-08-13 11:33:00,
2013-08-13 07:38:00,72.5,66.7,29.50,NE,45,0.0,0.0,82,0.00,,,0.00,WUHU21623XXSP,2013-08-13 11:38:00,
2013-08-13 07:43:00,72.7,66.9,29.50,NE,45,0.0,0.0,82,0.00,,,0.00,WUHU21623XXSP,2013-08-13 11:43:00,
2013-08-13 07:48:00,72.9,67.4,29.50,NE,45,0.0,0.0,83,0.00,,,0.00,WUHU21623XXSP,2013-08-13 11:48:00,
2013-08-13 07:53:00,73.0,67.6,29.50,NE,45,0.0,0.0,83,0.00,,,0.00,WUHU21623XXSP,2013-08-13 11:53:00,
2013-08-13 07:58:00,73.0,67.6,29.50,NE,45,0.0,0.0,83,0.00,,,0.00,WUHU21623XXSP,2013-08-13 11:58:00,
2013-08-13 08:03:00,73.2,67.8,29.50,NE,45,0.0,0.0,83,0.00,,,0.00,WUHU21623XXSP,2013-08-13 12:03:00,
2013-08-13 08:08:00,73.2,67.8,29.50,NE,45,0.0,0.0,83,0.00,,,0.00,WUHU21623XXSP,2013-08-13 12:08:00,
2013-08-13 08:13:00,73.6,68.1,29.50,NE,45,0.0,0.0,83,0.00,,,0.00,WUHU21623XXSP,2013-08-13 12:13:00,
2013-08-13 08:18:00,73.9,68.5,29.50,NE,45,0.0,0.0,83,0.00,,,0.00,WUHU21623XXSP,2013-08-13 12:18:00,
2013-08-13 08:23:00,75.0,68.5,29.51,NE,45,0.0,0.0,80,0.00,,,0.00,WUHU21623XXSP,2013-08-13 12:23:00,
2013-08-13 08:28:00,77.4,68.8,29.51,NE,45,0.0,0.0,75,0.00,,,0.00,WUHU21623XXSP,2013-08-13 12:28:00,
2013-08-13 08:33:00,79.9,71.6,29.51,NE,45,0.0,0.0,76,0.00,,,0.00,WUHU21623XXSP,2013-08-13 12:33:00,
2013-08-13 08:38:00,82.8,79.5,29.52,NE,45,0.0,0.0,90,0.00,,,0.00,WUHU21623XXSP,2013-08-13 12:38:00,
2013-08-13 08:43:00,84.6,81.6,29.52,East,90,0.0,0.0,91,0.00,,,0.00,WUHU21623XXSP,2013-08-13 12:43:00,
2013-08-13 08:48:00,85.8,81.9,29.51,East,90,0.0,0.0,88,0.00,,,0.00,WUHU21623XXSP,2013-08-13 12:48:00,
2013-08-13 08:53:00,85.8,80.4,29.52,East,90,0.0,0.0,84,0.00,,,0.00,WUHU21623XXSP,2013-08-13 12:53:00,
2013-08-13 08:58:00,84.4,78.3,29.52,SSW,202,0.0,2.9,82,0.00,,,0.00,WUHU21623XXSP,2013-08-13 12:58:00,
2013-08-13 09:03:00,83.8,77.4,29.52,SW,225,0.0,2.9,81,0.00,,,0.00,WUHU21623XXSP,2013-08-13 13:03:00,
2013-08-13 09:09:00,84.0,77.5,29.52,SW,225,0.0,0.0,81,0.00,,,0.00,WUHU21623XXSP,2013-08-13 13:09:00,
2013-08-13 09:14:00,84.0,77.2,29.52,SW,225,0.0,0.0,80,0.00,,,0.00,WUHU21623XXSP,2013-08-13 13:14:00,
2013-08-13 09:19:00,84.0,77.2,29.52,SW,225,0.0,0.0,80,0.00,,,0.00,WUHU21623XXSP,2013-08-13 13:19:00,
2013-08-13 09:24:00,85.8,78.2,29.52,SSE,157,0.0,0.0,78,0.00,,,0.00,WUHU21623XXSP,2013-08-13 13:24:00,
2013-08-13 09:29:00,88.0,79.5,29.52,SSE,157,0.0,0.0,76,0.00,,,0.00,WUHU21623XXSP,2013-08-13 13:29:00,
2013-08-13 09:30:00,88.0,79.5,29.52,SSE,157,0.0,0.0,76,0.00,,,0.00,WUHU21623XXSP,2013-08-13 13:30:00,
2013-08-13 09:35:00,89.8,79.6,29.52,ENE,67,0.0,0.0,72,0.00,,,0.00,WUHU21623XXSP,2013-08-13 13:35:00,
2013-08-13 09:44:00,91.9,80.3,29.52,ENE,67,0.0,0.0,69,0.00,,,0.00,WUHU21623XXSP,2013-08-13 13:44:00,
2013-08-13 09:53:00,93.4,80.3,29.52,NE,45,0.0,0.0,66,0.00,,,0.00,WUHU21623XXSP,2013-08-13 13:53:00,
2013-08-13 09:58:00,94.6,80.5,29.52,NE,45,0.0,0.0,64,0.00,,,0.00,WUHU21623XXSP,2013-08-13 13:58:00,
2013-08-13 10:09:00,95.5,79.9,29.52,NE,45,0.0,0.0,61,0.00,,,0.00,WUHU21623XXSP,2013-08-13 14:09:00,
2013-08-13 10:20:00,97.0,80.8,29.51,NE,45,0.0,0.0,60,0.00,,,0.00,WUHU21623XXSP,2013-08-13 14:20:00,
2013-08-13 10:43:00,97.0,79.7,29.50,NE,45,0.0,0.0,58,0.00,,,0.00,WUHU21623XXSP,2013-08-13 14:43:00,
2013-08-13 11:08:00,99.7,80.6,29.51,SSE,157,0.0,0.0,55,0.00,,,0.00,WUHU21623XXSP,2013-08-13 15:08:00,
2013-08-13 11:17:00,99.7,80.0,29.50,SSE,157,0.0,0.0,54,0.00,,,0.00,WUHU21623XXSP,2013-08-13 15:17:00,